Time;durP1;ratioP1;P1;durP2;ratioP2;P2;SDS_P1;SDS_P2;PMS_P1;PMS_P2;Temp;Humidity;BMP_temperature;BMP_pressure;BME280_temperature;BME280_humidity;BME280_pressure;Samples;Min_cycle;Max_cycle;Signal;HPM_P1;HPM_P2
2022/12/04 00:00:15;;;;;;;14.23;10.00;;;19.80;46.80;;;;;;5051400;28;20048;-46
2022/12/04 00:02:42;;;;;;;12.85;9.15;;;19.70;46.90;;;;;;5050871;28;20048;-46
2022/12/04 00:05:09;;;;;;;11.52;8.55;;;19.70;47.00;;;;;;5051057;28;20045;-46
2022/12/04 00:07:36;;;;;;;13.68;9.77;;;19.60;47.00;;;;;;5051548;28;20055;-45
2022/12/04 00:10:02;;;;;;;11.45;9.15;;;19.60;47.10;;;;;;5051481;28;20055;-46
2022/12/04 00:12:29;;;;;;;12.18;9.05;;;19.60;47.20;;;;;;5051310;28;20053;-46
2022/12/04 00:14:56;;;;;;;12.82;9.60;;;19.50;47.20;;;;;;5051108;28;20412;-45
2022/12/04 00:17:24;;;;;;;12.40;9.55;;;19.50;47.30;;;;;;5051315;28;20059;-46
2022/12/04 00:19:50;;;;;;;12.63;9.50;;;19.50;47.30;;;;;;5051026;28;20045;-46
2022/12/04 00:22:19;;;;;;;13.45;9.30;;;19.40;47.30;;;;;;5051088;28;20060;-46
2022/12/04 00:24:46;;;;;;;12.95;9.52;;;19.40;47.40;;;;;;5051263;28;20053;-45
2022/12/04 00:27:13;;;;;;;12.07;9.20;;;19.40;47.50;;;;;;5051145;28;20410;-46
2022/12/04 00:29:40;;;;;;;12.13;8.95;;;19.30;47.50;;;;;;5050873;28;20078;-46
2022/12/04 00:32:06;;;;;;;12.40;9.52;;;19.30;47.60;;;;;;5051068;28;20505;-46
2022/12/04 00:34:34;;;;;;;11.93;9.30;;;19.20;47.60;;;;;;5050985;28;20059;-46
2022/12/04 00:37:01;;;;;;;11.68;8.57;;;19.20;47.60;;;;;;5050773;28;20054;-46
2022/12/04 00:39:28;;;;;;;13.02;9.88;;;19.20;47.60;;;;;;5051027;28;20049;-46
2022/12/04 00:41:54;;;;;;;13.98;9.60;;;19.20;47.60;;;;;;5051109;28;20175;-46
2022/12/04 00:44:21;;;;;;;14.15;10.02;;;19.10;47.60;;;;;;5051316;28;20060;-46
2022/12/04 00:46:48;;;;;;;12.07;9.35;;;19.10;47.70;;;;;;5054214;28;20055;-46
2022/12/04 00:49:14;;;;;;;12.38;9.52;;;19.10;47.70;;;;;;5054452;28;20387;-46
2022/12/04 00:51:42;;;;;;;12.52;9.48;;;19.00;47.80;;;;;;5054508;28;20044;-46
2022/12/04 00:54:09;;;;;;;13.45;9.88;;;19.00;47.80;;;;;;5054268;28;20049;-46
2022/12/04 00:56:36;;;;;;;12.55;9.75;;;19.00;47.80;;;;;;5054486;28;20052;-45
2022/12/04 00:59:03;;;;;;;13.18;9.80;;;19.00;47.90;;;;;;5054182;28;20508;-46
2022/12/04 01:01:29;;;;;;;13.30;9.70;;;18.90;47.90;;;;;;5054049;28;20485;-45
2022/12/04 01:03:56;;;;;;;12.52;9.55;;;18.90;47.90;;;;;;5054075;28;20373;-46
2022/12/04 01:06:24;;;;;;;13.27;10.10;;;18.90;47.90;;;;;;5054449;28;20045;-46
2022/12/04 01:08:52;;;;;;;13.25;9.50;;;18.90;48.00;;;;;;5054218;28;20049;-46
2022/12/04 01:11:19;;;;;;;13.00;10.15;;;18.80;48.00;;;;;;5054204;28;20041;-46
2022/12/04 01:13:46;;;;;;;13.15;10.15;;;18.80;48.00;;;;;;5053149;28;20497;-46
2022/12/04 01:16:16;;;;;;;14.98;9.50;;;18.80;48.10;;;;;;5054150;28;20045;-46
2022/12/04 01:18:43;;;;;;;13.10;9.38;;;18.70;48.10;;;;;;5054094;28;20049;-46
2022/12/04 01:21:09;;;;;;;13.88;10.23;;;18.70;48.10;;;;;;5053902;28;20595;-46
2022/12/04 01:23:36;;;;;;;12.85;9.38;;;18.70;48.10;;;;;;5053394;28;20048;-45
2022/12/04 01:26:04;;;;;;;13.73;10.05;;;18.70;48.20;;;;;;5053729;28;20053;-46
2022/12/04 01:28:31;;;;;;;13.25;9.75;;;18.70;48.20;;;;;;5053830;28;20051;-46
2022/12/04 01:30:59;;;;;;;13.70;9.75;;;18.60;48.20;;;;;;5053383;28;20146;-46
2022/12/04 01:33:26;;;;;;;12.10;9.38;;;18.60;48.20;;;;;;5053585;28;20053;-44
2022/12/04 01:35:53;;;;;;;13.43;10.23;;;18.60;48.20;;;;;;5053447;28;20041;-46
2022/12/04 01:38:20;;;;;;;15.27;10.55;;;18.60;48.30;;;;;;5053641;28;20053;-45
2022/12/04 01:40:47;;;;;;;13.90;9.70;;;18.50;48.30;;;;;;5053717;28;20417;-45
2022/12/04 01:43:15;;;;;;;14.25;10.00;;;18.50;48.30;;;;;;5053310;28;20048;-46
2022/12/04 01:45:42;;;;;;;13.65;9.75;;;18.40;48.30;;;;;;5053733;28;20057;-46
2022/12/04 01:48:13;;;;;;;13.55;9.55;;;18.40;48.30;;;;;;5053490;28;20053;-45
2022/12/04 01:50:40;;;;;;;13.85;10.32;;;18.40;48.40;;;;;;5053629;28;20059;-46
2022/12/04 01:53:07;;;;;;;13.27;9.65;;;18.40;48.40;;;;;;5052777;28;20049;-44
2022/12/04 01:55:33;;;;;;;11.98;9.43;;;18.40;48.40;;;;;;5053152;28;20059;-45
2022/12/04 01:58:00;;;;;;;13.88;9.50;;;18.40;48.50;;;;;;5053218;28;20045;-46
2022/12/04 02:00:28;;;;;;;14.32;10.32;;;18.30;48.50;;;;;;5053377;28;20049;-46
2022/12/04 02:02:55;;;;;;;13.93;10.95;;;18.30;48.50;;;;;;5052672;28;20041;-46
2022/12/04 02:05:22;;;;;;;13.55;9.98;;;18.30;48.60;;;;;;5052885;28;20045;-46
2022/12/04 02:07:50;;;;;;;12.45;9.80;;;18.20;48.60;;;;;;5052861;28;20533;-46
2022/12/04 02:10:23;;;;;;;13.95;10.20;;;18.20;49.20;;;;;;5053120;28;20049;-46
2022/12/04 02:12:54;;;;;;;13.50;9.57;;;18.20;48.60;;;;;;5052512;28;20053;-45
2022/12/04 02:15:22;;;;;;;14.05;9.88;;;18.20;48.60;;;;;;5052756;28;20055;-46
2022/12/04 02:17:53;;;;;;;13.43;10.30;;;18.20;48.70;;;;;;5053109;28;20428;-43
2022/12/04 02:20:24;;;;;;;14.52;10.23;;;18.20;48.70;;;;;;5052499;28;20041;-44
2022/12/04 02:22:59;;;;;;;14.45;10.77;;;18.10;48.70;;;;;;5052511;28;20680;-43
2022/12/04 02:25:30;;;;;;;13.30;9.77;;;18.10;48.70;;;;;;5052536;28;20132;-43
2022/12/04 02:28:05;;;;;;;15.20;10.07;;;18.10;48.70;;;;;;5052675;28;20417;-43
2022/12/04 02:30:32;;;;;;;14.63;10.18;;;18.00;48.70;;;;;;5052470;28;20044;-43
2022/12/04 02:33:01;;;;;;;14.25;10.57;;;18.00;48.80;;;;;;5052584;28;20049;-43
2022/12/04 02:35:30;;;;;;;13.75;10.30;;;18.00;48.80;;;;;;5052280;28;20136;-44
2022/12/04 02:37:58;;;;;;;13.40;9.63;;;18.00;48.90;;;;;;5052101;28;20778;-43
2022/12/04 02:40:26;;;;;;;13.55;10.63;;;18.00;48.90;;;;;;5052572;28;20045;-43
2022/12/04 02:42:55;;;;;;;15.52;10.82;;;17.90;48.80;;;;;;5052046;28;20059;-43
2022/12/04 02:45:25;;;;;;;15.60;11.35;;;17.90;48.80;;;;;;5052330;28;20044;-43
2022/12/04 02:47:52;;;;;;;14.35;10.63;;;17.90;48.80;;;;;;5052496;28;20045;-43
2022/12/04 02:50:21;;;;;;;15.35;10.75;;;17.90;48.90;;;;;;5051676;28;20071;-43
2022/12/04 02:52:49;;;;;;;13.95;10.52;;;17.90;48.90;;;;;;5052239;28;20057;-43
2022/12/04 02:55:18;;;;;;;15.27;11.00;;;17.80;48.90;;;;;;5052033;28;20048;-43
2022/12/04 02:57:46;;;;;;;14.80;10.85;;;17.80;48.90;;;;;;5052026;28;20048;-44
2022/12/04 03:00:14;;;;;;;14.32;11.10;;;17.80;49.50;;;;;;5052214;28;20055;-43
2022/12/04 03:02:46;;;;;;;13.35;10.65;;;17.80;49.00;;;;;;5051852;28;20056;-43
2022/12/04 03:05:13;;;;;;;13.48;10.65;;;17.80;49.00;;;;;;5052318;28;20055;-42
2022/12/04 03:07:42;;;;;;;14.82;10.82;;;17.80;49.10;;;;;;5051424;28;20049;-43
2022/12/04 03:10:10;;;;;;;16.35;11.48;;;17.70;49.00;;;;;;5051066;28;20497;-42
2022/12/04 03:12:38;;;;;;;15.18;11.15;;;17.70;49.10;;;;;;5050299;28;20041;-42
2022/12/04 03:15:07;;;;;;;13.85;10.70;;;17.70;49.10;;;;;;5051495;28;20051;-42
2022/12/04 03:17:40;;;;;;;15.13;10.60;;;17.60;49.10;;;;;;5051506;28;20045;-42
2022/12/04 03:20:10;;;;;;;13.68;10.57;;;17.60;49.10;;;;;;5051339;28;20524;-42
2022/12/04 03:22:37;;;;;;;13.85;10.70;;;17.60;49.10;;;;;;5051365;28;20081;-42
2022/12/04 03:25:05;;;;;;;16.10;11.65;;;17.60;49.20;;;;;;5051412;28;20051;-42
2022/12/04 03:27:34;;;;;;;13.77;10.45;;;17.60;49.10;;;;;;5051692;28;20059;-41
2022/12/04 03:30:02;;;;;;;14.27;10.98;;;17.60;49.20;;;;;;5052048;28;20080;-42
2022/12/04 03:32:31;;;;;;;14.43;10.80;;;17.60;49.20;;;;;;5051799;28;20057;-42
2022/12/04 03:35:01;;;;;;;14.85;11.55;;;17.50;49.10;;;;;;5051498;28;20520;-43
2022/12/04 03:37:33;;;;;;;15.23;11.38;;;17.50;49.20;;;;;;5051486;28;20494;-42
2022/12/04 03:40:02;;;;;;;16.52;11.95;;;17.50;49.20;;;;;;5051582;28;20059;-42
2022/12/04 03:42:32;;;;;;;13.95;10.85;;;17.50;49.30;;;;;;5051320;28;20440;-42
2022/12/04 03:45:01;;;;;;;14.82;11.55;;;17.50;49.20;;;;;;5051882;28;20059;-42
2022/12/04 03:47:31;;;;;;;14.88;11.60;;;17.40;49.20;;;;;;5051427;28;20060;-42
2022/12/04 03:50:00;;;;;;;15.43;11.90;;;17.40;49.30;;;;;;5051571;28;20053;-42
2022/12/04 03:52:29;;;;;;;17.15;12.18;;;17.40;49.30;;;;;;5051422;28;20095;-42
2022/12/04 03:54:58;;;;;;;16.60;12.40;;;17.40;49.30;;;;;;5051492;28;20055;-42
2022/12/04 03:57:29;;;;;;;15.15;11.82;;;17.40;49.30;;;;;;5051666;28;20079;-42
2022/12/04 03:59:58;;;;;;;15.65;11.77;;;17.30;49.30;;;;;;5051873;28;20045;-43
2022/12/04 04:02:27;;;;;;;15.25;11.50;;;17.30;49.40;;;;;;5051592;28;20059;-42
2022/12/04 04:04:54;;;;;;;14.05;11.00;;;17.30;49.40;;;;;;5051003;28;20052;-42
2022/12/04 04:07:22;;;;;;;15.27;11.05;;;17.30;49.40;;;;;;5051639;28;20055;-42
2022/12/04 04:09:50;;;;;;;14.38;11.40;;;17.30;49.50;;;;;;5051325;28;20071;-43
2022/12/04 04:12:19;;;;;;;16.08;11.48;;;17.20;49.50;;;;;;5051442;28;20044;-43
2022/12/04 04:25:50;;;;;;;14.15;11.00;;;17.10;49.60;;;;;;5035503;28;20053;-42
2022/12/04 04:28:29;;;;;;;14.63;11.27;;;17.10;49.60;;;;;;5035347;28;20505;-42
2022/12/04 04:30:59;;;;;;;15.25;11.82;;;17.10;49.60;;;;;;5035124;28;20052;-42
2022/12/04 04:33:26;;;;;;;16.88;11.57;;;17.10;49.60;;;;;;5041773;28;20052;-42
2022/12/04 04:35:53;;;;;;;16.48;11.75;;;17.10;49.60;;;;;;5054737;28;20049;-43
2022/12/04 04:38:22;;;;;;;15.40;11.77;;;17.10;49.60;;;;;;5054817;28;20061;-42
2022/12/04 04:40:51;;;;;;;14.90;11.57;;;17.00;49.60;;;;;;5054737;28;20044;-42
2022/12/04 04:43:20;;;;;;;15.23;11.95;;;17.00;49.60;;;;;;5054690;28;20045;-42
2022/12/04 04:45:49;;;;;;;15.25;11.38;;;17.00;49.70;;;;;;5054793;28;20055;-41
2022/12/04 04:48:18;;;;;;;15.73;11.77;;;17.00;49.70;;;;;;5054498;28;20045;-42
2022/12/04 04:50:45;;;;;;;17.98;12.93;;;17.00;49.70;;;;;;5054652;28;20053;-42
2022/12/04 04:53:13;;;;;;;15.75;11.88;;;17.00;49.80;;;;;;5054584;28;20059;-42
2022/12/04 04:55:40;;;;;;;15.35;12.23;;;16.90;49.70;;;;;;5054613;28;20144;-42
2022/12/04 04:58:08;;;;;;;15.55;11.82;;;16.90;49.70;;;;;;5054417;28;20041;-42
2022/12/04 05:00:34;;;;;;;15.57;11.65;;;16.90;49.70;;;;;;5054474;28;20383;-42
2022/12/04 05:03:02;;;;;;;14.90;11.90;;;16.90;49.80;;;;;;5054290;28;20048;-42
2022/12/04 05:05:29;;;;;;;16.25;12.05;;;16.90;49.80;;;;;;5054525;28;20053;-41
2022/12/04 05:07:56;;;;;;;16.88;12.32;;;16.90;49.80;;;;;;5054643;28;20049;-42
2022/12/04 05:10:23;;;;;;;15.18;12.07;;;16.90;49.80;;;;;;5054187;28;20045;-42
2022/12/04 05:12:49;;;;;;;17.20;12.85;;;16.90;49.80;;;;;;5054070;28;20048;-42
2022/12/04 05:15:16;;;;;;;15.35;12.05;;;16.90;49.80;;;;;;5054153;28;20416;-43
2022/12/04 05:17:43;;;;;;;15.57;12.15;;;16.90;49.80;;;;;;5054398;28;20052;-42
2022/12/04 05:20:11;;;;;;;15.93;12.30;;;16.90;49.80;;;;;;5053895;28;20049;-42
2022/12/04 05:22:38;;;;;;;16.45;12.43;;;16.90;49.80;;;;;;5054116;28;20059;-42
2022/12/04 05:25:05;;;;;;;15.63;11.90;;;16.90;49.80;;;;;;5053969;28;20059;-43
2022/12/04 05:27:32;;;;;;;17.40;12.27;;;16.90;49.80;;;;;;5053919;28;20132;-42
2022/12/04 05:29:59;;;;;;;16.08;12.50;;;16.90;49.80;;;;;;5053447;28;20391;-42
2022/12/04 05:32:27;;;;;;;16.77;12.55;;;17.00;49.80;;;;;;5053829;28;20053;-42
2022/12/04 05:34:55;;;;;;;16.58;11.90;;;17.00;49.70;;;;;;5054020;28;20053;-42
2022/12/04 05:37:23;;;;;;;15.55;12.27;;;17.00;49.70;;;;;;5053715;28;20048;-42
2022/12/04 05:39:49;;;;;;;17.35;12.80;;;17.00;49.60;;;;;;5053609;28;20055;-42
2022/12/04 05:42:16;;;;;;;14.95;11.48;;;17.10;49.60;;;;;;5053733;28;20055;-42
2022/12/04 05:44:43;;;;;;;16.33;12.10;;;17.10;49.60;;;;;;5053342;28;20051;-42
2022/12/04 05:47:10;;;;;;;15.32;11.60;;;17.10;49.60;;;;;;5053602;28;20045;-42
2022/12/04 05:49:37;;;;;;;14.75;11.60;;;17.10;49.50;;;;;;5053728;28;20053;-42
2022/12/04 05:52:04;;;;;;;13.88;11.15;;;17.10;49.50;;;;;;5053460;28;20045;-42
2022/12/04 05:54:32;;;;;;;16.52;12.18;;;17.20;49.50;;;;;;5052979;28;20078;-42
2022/12/04 05:56:59;;;;;;;15.65;11.43;;;17.20;49.40;;;;;;5053369;28;20045;-42
2022/12/04 05:59:26;;;;;;;15.23;11.40;;;17.20;49.40;;;;;;5053600;28;20128;-42
2022/12/04 06:01:52;;;;;;;15.70;12.00;;;17.30;49.40;;;;;;5053165;28;20098;-42
2022/12/04 06:04:19;;;;;;;14.73;11.65;;;17.30;49.30;;;;;;5053218;28;20405;-42
2022/12/04 06:06:46;;;;;;;16.38;12.00;;;17.30;49.30;;;;;;5053483;28;20087;-42
2022/12/04 06:09:12;;;;;;;15.40;11.57;;;17.30;49.30;;;;;;5052964;28;20047;-42
2022/12/04 06:11:41;;;;;;;15.90;11.55;;;17.30;49.30;;;;;;5053111;28;20132;-41
2022/12/04 06:14:09;;;;;;;17.55;12.10;;;17.40;49.30;;;;;;5052805;28;20055;-41
2022/12/04 06:16:36;;;;;;;16.25;11.27;;;17.40;49.20;;;;;;5053170;28;20469;-43
2022/12/04 06:19:04;;;;;;;16.67;12.25;;;17.40;49.20;;;;;;5053211;28;20045;-42
2022/12/04 06:21:32;;;;;;;14.88;11.60;;;17.40;49.20;;;;;;5052814;28;20059;-42
2022/12/04 06:23:58;;;;;;;15.25;11.13;;;17.50;49.10;;;;;;5052266;28;20049;-42
2022/12/04 06:26:25;;;;;;;15.80;11.30;;;17.50;49.10;;;;;;5053091;28;20071;-43
2022/12/04 06:28:54;;;;;;;15.32;11.77;;;17.50;49.10;;;;;;5052667;28;20516;-43
2022/12/04 06:31:20;;;;;;;14.60;11.38;;;17.50;49.00;;;;;;5052932;28;20498;-42
2022/12/04 06:33:47;;;;;;;15.55;11.85;;;17.60;49.00;;;;;;5052436;28;20053;-42
2022/12/04 06:36:15;;;;;;;15.43;11.48;;;17.60;48.90;;;;;;5052273;28;20132;-42
2022/12/04 06:38:42;;;;;;;14.70;11.25;;;17.60;48.90;;;;;;5052526;28;20132;-42
2022/12/04 06:41:09;;;;;;;13.95;10.85;;;17.60;48.90;;;;;;5052668;28;20131;-42
2022/12/04 06:43:36;;;;;;;16.20;12.20;;;17.60;48.90;;;;;;5051075;28;20136;-42
2022/12/04 06:46:05;;;;;;;14.73;11.32;;;17.60;48.80;;;;;;5052444;28;20510;-43
2022/12/04 06:48:32;;;;;;;16.88;11.75;;;17.70;48.80;;;;;;5052667;28;20420;-42
2022/12/04 06:50:59;;;;;;;15.05;11.55;;;17.70;48.70;;;;;;5052384;28;20044;-42
2022/12/04 06:53:29;;;;;;;16.10;12.10;;;17.70;48.60;;;;;;5052047;28;20769;-42
2022/12/04 06:55:56;;;;;;;16.05;11.85;;;17.70;48.60;;;;;;5052485;28;20049;-43
2022/12/04 06:58:23;;;;;;;14.82;11.60;;;17.70;48.60;;;;;;5051971;28;20401;-42
2022/12/04 07:00:49;;;;;;;15.77;11.40;;;17.80;48.70;;;;;;5052429;28;20056;-42
2022/12/04 07:03:18;;;;;;;16.35;12.00;;;17.80;48.60;;;;;;5051908;28;20490;-40
2022/12/04 07:05:44;;;;;;;15.95;11.93;;;17.80;48.50;;;;;;5051736;28;20501;-43
2022/12/04 07:08:11;;;;;;;15.38;10.95;;;17.80;48.50;;;;;;5052397;28;20135;-42
2022/12/04 07:10:38;;;;;;;14.48;11.18;;;17.80;48.50;;;;;;5051946;28;20045;-43
2022/12/04 07:13:05;;;;;;;15.73;11.35;;;17.80;48.50;;;;;;5051772;28;20044;-42
2022/12/04 07:15:32;;;;;;;15.70;11.75;;;17.80;48.50;;;;;;5051698;28;20501;-43
2022/12/04 07:17:59;;;;;;;15.93;12.18;;;17.80;48.40;;;;;;5052110;28;20048;-42
2022/12/04 07:20:27;;;;;;;15.15;11.43;;;17.90;48.40;;;;;;5051703;28;20477;-42
2022/12/04 07:22:54;;;;;;;17.35;12.35;;;17.90;48.90;;;;;;5051679;28;20055;-42
2022/12/04 07:25:20;;;;;;;15.13;11.00;;;17.90;48.40;;;;;;5051883;28;20131;-43
2022/12/04 07:27:47;;;;;;;13.77;10.52;;;17.90;48.30;;;;;;5051707;28;20049;-42
2022/12/04 07:30:14;;;;;;;16.45;11.70;;;17.90;48.30;;;;;;5052069;28;20405;-42
2022/12/04 07:32:41;;;;;;;15.98;12.05;;;17.90;48.20;;;;;;5051682;28;20063;-43
2022/12/04 07:35:08;;;;;;;15.20;11.35;;;17.90;48.20;;;;;;5051434;28;20063;-42
2022/12/04 07:37:36;;;;;;;16.83;11.93;;;18.00;48.20;;;;;;5051893;28;20059;-43
2022/12/04 07:40:04;;;;;;;15.98;11.32;;;18.00;48.20;;;;;;5051610;28;20491;-42
2022/12/04 07:42:30;;;;;;;13.75;10.55;;;18.00;48.30;;;;;;5051752;28;20051;-42
2022/12/04 07:44:57;;;;;;;15.55;12.13;;;17.90;48.20;;;;;;5051834;28;20071;-40
2022/12/04 07:47:24;;;;;;;15.95;11.95;;;17.90;48.10;;;;;;5051528;28;20045;-42
2022/12/04 07:49:51;;;;;;;17.90;12.25;;;18.00;48.10;;;;;;5051553;28;20045;-42
2022/12/04 07:52:17;;;;;;;16.23;11.57;;;18.00;48.00;;;;;;5050935;28;20041;-43
2022/12/04 07:54:46;;;;;;;14.43;10.85;;;18.00;48.00;;;;;;5054306;28;20420;-43
2022/12/04 07:57:12;;;;;;;14.57;11.00;;;18.00;48.00;;;;;;5055695;28;20396;-42
2022/12/04 07:59:39;;;;;;;14.23;11.13;;;18.00;48.10;;;;;;5055761;28;20131;-42
2022/12/04 08:02:06;;;;;;;15.02;11.35;;;18.00;48.10;;;;;;5055330;28;20037;-42
2022/12/04 08:04:33;;;;;;;14.10;10.88;;;18.00;48.00;;;;;;5055494;28;20400;-42
2022/12/04 08:06:59;;;;;;;16.08;11.80;;;18.00;47.90;;;;;;5055192;28;20494;-43
2022/12/04 08:09:26;;;;;;;14.57;11.50;;;18.10;47.70;;;;;;5055574;28;20127;-42
2022/12/04 08:11:54;;;;;;;17.00;11.15;;;18.10;47.70;;;;;;5054950;28;20045;-42
2022/12/04 08:14:21;;;;;;;13.27;9.95;;;18.10;47.80;;;;;;5054883;28;20446;-39
2022/12/04 08:16:48;;;;;;;13.57;10.82;;;18.10;48.00;;;;;;5055079;28;20440;-42
2022/12/04 08:19:15;;;;;;;12.38;9.48;;;18.20;48.10;;;;;;5055163;28;20390;-42
2022/12/04 08:21:42;;;;;;;13.95;10.35;;;18.20;48.30;;;;;;5054824;28;20064;-42
2022/12/04 08:24:08;;;;;;;13.48;9.88;;;18.20;48.30;;;;;;5054459;28;20049;-42
2022/12/04 08:26:35;;;;;;;13.98;9.98;;;18.30;48.40;;;;;;5054246;28;20044;-42
2022/12/04 08:29:04;;;;;;;11.52;9.18;;;18.30;48.40;;;;;;5053308;28;20507;-43
2022/12/04 08:31:32;;;;;;;13.48;10.07;;;18.30;48.40;;;;;;5054564;28;20530;-42
2022/12/04 08:34:00;;;;;;;13.00;9.82;;;18.40;48.50;;;;;;5054539;28;20056;-42
2022/12/04 08:36:27;;;;;;;14.23;10.23;;;18.50;48.50;;;;;;5054294;28;20056;-42
2022/12/04 08:38:54;;;;;;;12.77;9.40;;;18.60;48.60;;;;;;5054546;28;20047;-42
2022/12/04 08:41:22;;;;;;;12.02;9.13;;;18.70;48.50;;;;;;5054392;28;20053;-42
2022/12/04 08:43:49;;;;;;;12.60;9.63;;;18.70;48.50;;;;;;5054620;28;20075;-42
2022/12/04 08:46:17;;;;;;;11.70;9.20;;;18.80;48.50;;;;;;5054723;28;20052;-42
2022/12/04 08:48:44;;;;;;;12.90;9.80;;;18.90;48.50;;;;;;5054128;28;20067;-40
2022/12/04 08:51:12;;;;;;;12.65;9.32;;;19.00;48.50;;;;;;5054305;28;20049;-43
2022/12/04 08:53:39;;;;;;;11.77;8.73;;;19.10;48.40;;;;;;5054107;28;20497;-43
2022/12/04 08:56:06;;;;;;;11.60;8.93;;;19.20;48.40;;;;;;5054604;28;20049;-43
2022/12/04 08:58:33;;;;;;;11.00;8.68;;;19.30;48.40;;;;;;5054260;28;20102;-42
2022/12/04 09:01:04;;;;;;;12.55;8.95;;;19.30;48.30;;;;;;5053999;28;20051;-41
2022/12/04 09:03:32;;;;;;;10.75;8.43;;;19.40;48.20;;;;;;5053850;28;20045;-42
2022/12/04 09:05:59;;;;;;;10.50;8.63;;;19.50;48.10;;;;;;5053698;28;20053;-43
2022/12/04 09:08:25;;;;;;;11.38;9.13;;;19.60;48.10;;;;;;5054267;28;20049;-43
2022/12/04 09:10:52;;;;;;;11.63;9.30;;;19.60;47.80;;;;;;5054278;28;20421;-40
2022/12/04 09:13:19;;;;;;;11.43;8.40;;;19.70;47.60;;;;;;5053832;28;20057;-42
2022/12/04 09:15:45;;;;;;;11.45;8.70;;;19.80;47.50;;;;;;5053930;28;20049;-41
2022/12/04 09:18:12;;;;;;;11.25;8.63;;;19.80;47.40;;;;;;5053985;28;20128;-42
2022/12/04 09:20:40;;;;;;;11.55;8.88;;;19.90;47.30;;;;;;5053329;28;20055;-42
2022/12/04 09:23:07;;;;;;;11.73;8.43;;;20.00;47.30;;;;;;5053783;28;20511;-41
2022/12/04 09:25:35;;;;;;;10.15;7.90;;;20.00;47.30;;;;;;5053408;28;20120;-41
2022/12/04 09:28:01;;;;;;;9.98;8.40;;;20.10;47.20;;;;;;5054045;28;20318;-42
2022/12/04 09:30:28;;;;;;;10.23;8.20;;;20.10;47.10;;;;;;5053773;28;20053;-43
2022/12/04 09:32:55;;;;;;;10.68;7.90;;;20.20;47.10;;;;;;5053617;28;20482;-43
2022/12/04 09:35:21;;;;;;;9.52;8.10;;;20.20;47.00;;;;;;5053270;28;20280;-42
2022/12/04 09:37:49;;;;;;;12.35;8.52;;;20.30;47.00;;;;;;5052825;28;20045;-43
2022/12/04 09:40:22;;;;;;;9.73;7.90;;;20.30;46.80;;;;;;5053447;28;20049;-41
2022/12/04 09:42:50;;;;;;;10.30;8.10;;;20.40;46.80;;;;;;5053751;28;20049;-42
2022/12/04 09:45:18;;;;;;;12.05;8.10;;;20.40;46.80;;;;;;5053371;28;20132;-40
2022/12/04 09:47:46;;;;;;;10.80;8.35;;;20.50;46.80;;;;;;5053153;28;20516;-41
2022/12/04 09:50:16;;;;;;;10.57;7.65;;;20.50;46.70;;;;;;5053524;28;20056;-43
2022/12/04 09:52:51;;;;;;;10.45;8.02;;;20.50;46.60;;;;;;5053006;28;20049;-42
2022/12/04 09:55:21;;;;;;;10.45;7.88;;;20.50;46.50;;;;;;5053330;28;20049;-42
2022/12/04 09:57:48;;;;;;;9.80;7.50;;;20.60;46.50;;;;;;5053059;28;20118;-42
2022/12/04 10:00:17;;;;;;;12.82;8.30;;;20.60;46.40;;;;;;5053126;28;20047;-42
2022/12/04 10:02:45;;;;;;;9.60;7.72;;;20.70;46.40;;;;;;5052903;28;20057;-41
2022/12/04 10:05:16;;;;;;;11.95;7.97;;;20.70;46.40;;;;;;5053543;28;20057;-41
2022/12/04 10:07:45;;;;;;;10.32;8.00;;;20.70;46.30;;;;;;5053269;28;20127;-39
2022/12/04 10:10:17;;;;;;;10.68;7.47;;;20.70;46.30;;;;;;5053215;28;20053;-42
2022/12/04 10:12:48;;;;;;;8.88;7.50;;;20.80;46.30;;;;;;5052657;28;20128;-41
2022/12/04 10:15:24;;;;;;;10.48;7.43;;;20.70;46.20;;;;;;5053153;28;20052;-42
2022/12/04 10:18:00;;;;;;;9.68;7.22;;;20.80;46.20;;;;;;5052928;28;20044;-40
2022/12/04 10:20:37;;;;;;;9.38;7.03;;;20.90;46.20;;;;;;5052394;28;20041;-40
2022/12/04 10:23:07;;;;;;;9.35;7.47;;;20.90;46.10;;;;;;5052216;28;20041;-42
2022/12/04 10:25:36;;;;;;;9.38;7.50;;;20.90;46.00;;;;;;5052607;28;20049;-42
2022/12/04 10:28:11;;;;;;;8.95;7.32;;;20.90;46.00;;;;;;5053033;28;20053;-41
2022/12/04 10:30:38;;;;;;;;;;;20.90;46.00;;;;;;5053117;28;20060;-42
2022/12/04 10:33:11;;;;;;;8.95;7.32;;;20.90;46.90;;;;;;5052322;28;19926;-40
2022/12/04 10:35:40;;;;;;;7.45;6.25;;;20.90;46.20;;;;;;5051109;28;20049;-41
2022/12/04 10:38:19;;;;;;;9.10;7.10;;;20.90;46.00;;;;;;5052329;28;20123;-40
2022/12/04 10:40:50;;;;;;;8.93;6.90;;;21.00;46.00;;;;;;5049832;28;20052;-42
2022/12/04 10:43:19;;;;;;;9.13;6.78;;;20.90;45.90;;;;;;5051022;28;20052;-41
2022/12/04 10:45:46;;;;;;;8.75;6.80;;;21.00;45.90;;;;;;5051202;28;20047;-40
2022/12/04 10:48:13;;;;;;;8.52;6.88;;;21.00;45.80;;;;;;5052206;28;20053;-42
2022/12/04 10:50:40;;;;;;;8.35;6.43;;;21.10;45.80;;;;;;5052134;28;20051;-41
2022/12/04 10:53:06;;;;;;;8.60;6.38;;;21.10;45.80;;;;;;5051405;28;20048;-41
2022/12/04 10:55:35;;;;;;;8.20;6.57;;;21.10;45.70;;;;;;5051965;28;20149;-40
2022/12/04 10:58:03;;;;;;;9.60;6.75;;;21.10;45.70;;;;;;5051829;28;20049;-40
2022/12/04 11:00:31;;;;;;;8.02;6.28;;;21.10;45.70;;;;;;5052353;28;20048;-40
2022/12/04 11:02:59;;;;;;;8.15;6.47;;;21.10;45.60;;;;;;5051850;28;20049;-36
2022/12/04 11:05:29;;;;;;;10.10;6.72;;;21.10;45.60;;;;;;5052226;28;20543;-40
2022/12/04 11:07:55;;;;;;;7.80;6.05;;;21.10;45.50;;;;;;5052042;28;20059;-40
2022/12/04 11:10:24;;;;;;;8.68;6.50;;;21.20;45.60;;;;;;5052063;28;20554;-40
2022/12/04 11:12:55;;;;;;;8.07;6.20;;;21.20;45.70;;;;;;5051485;28;20041;-41
2022/12/04 11:15:23;;;;;;;8.88;6.25;;;21.20;45.60;;;;;;5052195;28;20052;-40
2022/12/04 11:17:51;;;;;;;7.18;6.03;;;21.20;45.60;;;;;;5050627;28;20417;-41
2022/12/04 11:20:19;;;;;;;8.45;6.63;;;21.20;45.60;;;;;;5051731;28;20057;-41
2022/12/04 11:22:50;;;;;;;7.82;6.38;;;21.20;45.50;;;;;;5051420;28;20520;-39
2022/12/04 11:25:18;;;;;;;9.32;6.10;;;21.20;45.60;;;;;;5051643;28;20492;-38
2022/12/04 11:27:45;;;;;;;7.85;6.18;;;21.20;45.60;;;;;;5051728;28;20053;-41
2022/12/04 11:30:14;;;;;;;10.80;6.50;;;21.20;45.60;;;;;;5050617;28;20045;-42
2022/12/04 11:32:44;;;;;;;13.57;7.40;;;21.20;45.60;;;;;;5051290;28;20486;-40
2022/12/04 11:35:13;;;;;;;14.95;7.70;;;21.30;45.70;;;;;;5051812;28;20049;-40
2022/12/04 11:37:40;;;;;;;11.88;6.32;;;21.30;45.80;;;;;;5052015;28;20085;-39
2022/12/04 11:40:14;;;;;;;13.15;6.93;;;21.30;45.80;;;;;;5051755;28;20120;-42
2022/12/04 11:42:41;;;;;;;12.02;7.22;;;21.30;45.80;;;;;;5051334;28;20512;-41
2022/12/04 11:45:19;;;;;;;11.90;6.70;;;21.30;46.00;;;;;;5051666;28;20049;-41
2022/12/04 11:47:54;;;;;;;11.57;6.47;;;21.30;45.90;;;;;;5051617;28;20045;-42
2022/12/04 11:50:26;;;;;;;9.85;6.88;;;21.30;46.00;;;;;;5051343;28;20067;-42
2022/12/04 11:53:01;;;;;;;10.98;6.80;;;21.30;45.90;;;;;;5051233;28;20043;-42
2022/12/04 11:55:31;;;;;;;10.02;6.70;;;21.30;45.90;;;;;;5051564;28;20049;-41
2022/12/04 11:58:11;;;;;;;12.52;6.85;;;21.30;45.90;;;;;;5051442;28;20044;-42
2022/12/04 12:00:39;;;;;;;10.73;6.57;;;21.30;46.00;;;;;;5051708;28;20486;-42
2022/12/04 12:03:13;;;;;;;9.50;6.78;;;21.30;45.90;;;;;;5050854;28;20049;-41
2022/12/04 12:06:05;;;;;;;10.40;6.68;;;21.40;46.00;;;;;;5051514;28;20123;-41
2022/12/04 12:08:39;;;;;;;9.50;6.18;;;21.40;46.20;;;;;;5051316;28;20159;-42
2022/12/04 12:11:11;;;;;;;10.48;6.68;;;21.40;46.00;;;;;;5051590;28;20446;-40
2022/12/04 12:13:43;;;;;;;10.32;6.35;;;21.40;46.00;;;;;;5050616;28;20049;-42
2022/12/04 12:16:12;;;;;;;10.48;5.97;;;21.40;46.00;;;;;;5050722;28;20053;-42
2022/12/04 12:18:46;;;;;;;9.13;6.00;;;21.40;45.90;;;;;;5047313;28;20041;-42
2022/12/04 12:21:15;;;;;;;8.85;6.45;;;21.40;45.90;;;;;;5040809;28;20570;-42
2022/12/04 12:23:57;;;;;;;10.13;6.10;;;21.40;45.90;;;;;;5051120;28;20127;-42
2022/12/04 12:26:26;;;;;;;9.13;6.20;;;21.40;45.90;;;;;;5051187;28;20124;-42
2022/12/04 12:29:09;;;;;;;8.80;6.00;;;21.40;45.90;;;;;;5050255;28;20459;-42
2022/12/04 12:31:51;;;;;;;8.45;6.30;;;21.50;46.00;;;;;;5050999;28;20057;-41
2022/12/04 12:34:30;;;;;;;12.40;5.95;;;21.50;45.90;;;;;;5050090;28;20482;-40
2022/12/04 12:36:56;;;;;;;10.10;6.20;;;21.50;45.80;;;;;;5049737;28;20409;-39
2022/12/04 12:39:24;;;;;;;8.65;6.25;;;21.50;45.80;;;;;;5050122;28;20490;-41
2022/12/04 12:41:53;;;;;;;8.77;6.60;;;21.40;45.60;;;;;;5059371;28;20635;-41
2022/12/04 12:44:21;;;;;;;9.85;6.55;;;21.40;45.60;;;;;;5051701;28;20047;-42
2022/12/04 12:46:50;;;;;;;9.50;6.60;;;21.40;45.50;;;;;;5054099;28;20052;-42
2022/12/04 12:49:20;;;;;;;10.23;6.68;;;21.40;45.40;;;;;;5053769;28;20056;-42